Time;durP1;ratioP1;P1;durP2;ratioP2;P2;SDS_P1;SDS_P2;PMS_P1;PMS_P2;Temp;Humidity;BMP_temperature;BMP_pressure;BME280_temperature;BME280_humidity;BME280_pressure;Samples;Min_cycle;Max_cycle;Signal;HPM_P1;HPM_P2
2022/01/20 00:03:32;;;;;;;18.40;16.13;;;13.20;83.60;;;;;;5117568;28;20077;-32
2022/01/20 00:28:18;;;;;;;22.40;18.40;;;13.00;85.20;;;;;;5150300;28;20046;-34
2022/01/20 00:31:03;;;;;;;19.73;17.03;;;13.00;85.50;;;;;;5150031;28;20043;-31
2022/01/20 00:38:39;;;;;;;18.50;16.40;;;13.00;85.90;;;;;;5130262;28;20066;-31
2022/01/20 00:41:15;;;;;;;20.93;18.67;;;13.00;85.80;;;;;;5129582;29;20141;-33
2022/01/20 00:43:46;;;;;;;20.07;17.93;;;13.00;85.90;;;;;;5113259;29;20051;-31
2022/01/20 00:46:16;;;;;;;21.23;18.23;;;13.00;86.50;;;;;;5129518;29;20396;-31
2022/01/20 00:48:48;;;;;;;20.67;17.13;;;12.90;86.40;;;;;;5129792;29;20047;-32
2022/01/20 00:51:19;;;;;;;21.17;18.40;;;12.90;86.80;;;;;;5129692;29;20058;-32
2022/01/20 00:53:51;;;;;;;19.87;17.77;;;12.90;87.30;;;;;;5129464;29;20062;-32
2022/01/20 00:56:22;;;;;;;19.20;17.20;;;12.80;87.20;;;;;;5129296;29;20539;-34
2022/01/20 00:58:53;;;;;;;19.33;17.33;;;12.80;86.90;;;;;;5112370;29;20055;-32
2022/01/20 01:01:24;;;;;;;18.40;16.50;;;12.90;87.30;;;;;;5129586;29;20055;-33
2022/01/20 01:03:55;;;;;;;18.40;16.40;;;12.70;87.30;;;;;;5112285;29;20047;-33
2022/01/20 01:09:09;;;;;;;20.77;18.58;;;12.80;87.60;;;;;;5128816;28;20044;-31
2022/01/20 01:11:43;;;;;;;19.70;17.60;;;12.80;87.70;;;;;;5129062;29;20058;-31
2022/01/20 01:14:16;;;;;;;18.10;16.20;;;12.70;87.60;;;;;;5129154;28;20059;-31
2022/01/20 01:24:43;;;;;;;18.97;16.67;;;12.70;88.30;;;;;;5143678;28;20487;-31
2022/01/20 01:27:14;;;;;;;18.10;16.20;;;12.60;88.50;;;;;;5146217;28;20121;-34
2022/01/20 01:32:29;;;;;;;21.10;18.90;;;12.70;88.60;;;;;;5146152;28;20137;-32
2022/01/20 01:35:04;;;;;;;17.13;15.30;;;12.70;88.70;;;;;;5145842;28;20086;-32
2022/01/20 01:38:24;;;;;;;19.97;17.83;;;12.70;88.90;;;;;;5146054;28;20500;-31
2022/01/20 01:40:28;;;;;;;19.13;17.10;;;12.70;88.80;;;;;;5145246;28;20078;-31
2022/01/20 01:43:06;;;;;;;19.33;17.00;;;12.60;88.80;;;;;;5145913;28;20050;-32
2022/01/20 01:45:40;;;;;;;17.03;15.27;;;12.70;88.80;;;;;;5140620;28;20473;-32
2022/01/20 01:48:10;;;;;;;18.05;16.13;;;12.70;88.90;;;;;;5138538;28;20058;-32
2022/01/20 01:50:42;;;;;;;17.97;15.97;;;12.70;89.00;;;;;;5146111;28;20057;-32
2022/01/20 01:53:14;;;;;;;17.90;16.20;;;12.70;89.00;;;;;;5146912;28;20690;-31
2022/01/20 01:55:45;;;;;;;17.65;15.93;;;12.70;89.00;;;;;;5145648;28;20051;-32
2022/01/20 01:58:17;;;;;;;17.10;15.30;;;12.70;89.10;;;;;;5146627;28;20528;-31
2022/01/20 02:00:50;;;;;;;;;;;12.70;89.30;;;;;;5112003;28;20050;-32
2022/01/20 02:03:21;;;;;;;21.17;17.80;;;12.70;89.50;;;;;;5145429;28;20400;-31
2022/01/20 02:08:33;;;;;;;22.30;18.63;;;12.50;90.30;;;;;;5145577;28;20170;-31
2022/01/20 02:19:32;;;;;;;17.20;15.10;;;12.60;90.10;;;;;;5147844;28;20050;-32
2022/01/20 02:22:04;;;;;;;16.43;13.97;;;12.60;90.20;;;;;;5147330;28;20046;-31
2022/01/20 02:24:35;;;;;;;16.90;15.10;;;12.60;90.20;;;;;;5147930;28;20046;-34
2022/01/20 02:27:06;;;;;;;16.93;15.17;;;12.60;90.10;;;;;;5147645;28;20055;-32
2022/01/20 02:29:37;;;;;;;18.33;15.20;;;12.60;90.10;;;;;;5146735;28;20050;-32
2022/01/20 02:32:09;;;;;;;18.57;16.57;;;12.60;90.20;;;;;;5147717;28;20149;-33
2022/01/20 02:34:40;;;;;;;19.20;16.00;;;12.60;90.20;;;;;;5148299;28;20121;-34
2022/01/20 02:37:14;;;;;;;17.30;15.40;;;12.60;90.20;;;;;;5147652;28;20074;-31
2022/01/20 02:40:03;;;;;;;15.07;13.57;;;12.60;90.30;;;;;;5147661;28;20498;-33
2022/01/20 02:45:24;;;;;;;17.37;15.23;;;12.60;90.20;;;;;;5147256;28;20057;-34
2022/01/20 02:47:55;;;;;;;18.57;16.00;;;12.70;90.40;;;;;;5147453;28;20078;-31
2022/01/20 02:50:25;;;;;;;18.70;16.13;;;12.70;90.10;;;;;;5147447;28;20077;-33
2022/01/20 02:52:56;;;;;;;19.63;16.53;;;12.70;90.10;;;;;;5147547;28;20244;-33
2022/01/20 02:55:27;;;;;;;17.53;14.90;;;12.80;90.10;;;;;;5147482;28;20081;-31
2022/01/20 02:57:59;;;;;;;19.07;15.47;;;12.70;90.00;;;;;;5129758;28;20082;-34
2022/01/20 03:00:31;;;;;;;16.30;14.40;;;12.80;90.00;;;;;;5146012;28;20507;-31
2022/01/20 03:03:02;;;;;;;17.13;14.30;;;12.80;90.00;;;;;;5147140;28;20054;-34
2022/01/20 03:05:33;;;;;;;17.43;14.23;;;12.80;89.70;;;;;;5145966;28;20456;-31
2022/01/20 03:08:04;;;;;;;13.37;10.83;;;12.80;89.70;;;;;;5146769;28;20061;-33
2022/01/20 03:10:35;;;;;;;12.93;11.30;;;12.80;89.70;;;;;;5147068;28;20047;-32
2022/01/20 03:13:07;;;;;;;14.37;11.37;;;12.70;89.50;;;;;;5146819;28;20049;-32
2022/01/20 03:15:37;;;;;;;16.83;11.93;;;12.70;89.20;;;;;;5145739;28;20444;-32
2022/01/20 03:18:09;;;;;;;13.97;10.70;;;12.70;89.30;;;;;;5146754;28;20047;-33
2022/01/20 03:20:40;;;;;;;12.83;9.17;;;12.70;88.80;;;;;;5146770;28;20098;-33
2022/01/20 03:23:11;;;;;;;12.83;9.33;;;12.70;88.80;;;;;;5146886;28;20543;-32
2022/01/20 03:25:42;;;;;;;11.37;8.83;;;12.70;88.60;;;;;;5146819;28;20070;-32
2022/01/20 03:28:14;;;;;;;13.57;8.53;;;12.70;88.40;;;;;;5146636;28;20135;-34
2022/01/20 03:30:45;;;;;;;11.97;8.73;;;12.70;88.20;;;;;;5145325;28;20051;-34
2022/01/20 03:33:16;;;;;;;11.23;8.00;;;12.70;88.40;;;;;;5145807;28;20053;-33
2022/01/20 03:35:47;;;;;;;9.43;6.87;;;12.70;87.60;;;;;;5146530;28;20051;-32
2022/01/20 03:38:19;;;;;;;11.50;8.17;;;12.70;87.60;;;;;;5145581;28;20085;-32
2022/01/20 03:40:50;;;;;;;10.40;7.10;;;12.70;87.50;;;;;;5146566;28;20432;-33
2022/01/20 03:43:21;;;;;;;10.60;7.27;;;12.60;87.50;;;;;;5145832;28;20125;-34
2022/01/20 03:45:56;;;;;;;8.27;6.23;;;12.60;87.20;;;;;;5145732;28;20509;-32
2022/01/20 03:48:29;;;;;;;9.13;6.03;;;12.50;87.10;;;;;;5146591;28;20046;-33
2022/01/20 03:51:00;;;;;;;10.23;6.90;;;12.50;86.80;;;;;;5146414;28;20061;-30
2022/01/20 03:53:38;;;;;;;8.73;5.03;;;12.40;86.60;;;;;;5146468;28;20047;-33
2022/01/20 03:56:09;;;;;;;9.37;4.87;;;12.40;86.60;;;;;;5145640;28;20500;-34
2022/01/20 03:58:40;;;;;;;9.13;4.67;;;12.40;86.60;;;;;;5146114;28;20452;-30
2022/01/20 04:01:12;;;;;;;6.13;3.60;;;12.40;85.40;;;;;;5146346;28;20039;-31
2022/01/20 04:03:43;;;;;;;6.97;4.17;;;12.40;84.70;;;;;;5145253;28;20485;-32
2022/01/20 04:06:14;;;;;;;6.50;3.70;;;12.40;84.20;;;;;;5146062;28;20096;-33
2022/01/20 04:08:46;;;;;;;7.87;3.70;;;12.30;83.60;;;;;;5145543;28;20444;-31
2022/01/20 04:11:24;;;;;;;10.27;4.13;;;12.40;83.30;;;;;;5145032;28;20057;-33
2022/01/20 04:13:55;;;;;;;9.00;3.20;;;12.40;82.80;;;;;;5145415;28;20042;-31
2022/01/20 04:16:39;;;;;;;6.27;2.93;;;12.50;82.50;;;;;;5146200;28;20133;-30
2022/01/20 04:19:10;;;;;;;7.77;2.90;;;12.40;82.10;;;;;;5146490;28;20047;-33
2022/01/20 04:21:42;;;;;;;6.80;2.90;;;12.40;81.70;;;;;;5145999;28;20054;-33
2022/01/20 04:24:14;;;;;;;6.20;2.20;;;12.30;81.10;;;;;;5145990;28;20051;-33
2022/01/20 04:26:46;;;;;;;9.57;3.00;;;12.40;80.90;;;;;;5145983;28;20058;-34
2022/01/20 04:29:17;;;;;;;6.20;2.80;;;12.40;80.50;;;;;;5146162;28;20047;-33
2022/01/20 04:31:50;;;;;;;6.33;2.57;;;12.30;80.30;;;;;;5145005;28;20551;-34
2022/01/20 04:34:21;;;;;;;7.83;5.43;;;12.40;79.90;;;;;;5144773;28;20447;-33
2022/01/20 04:36:54;;;;;;;9.23;6.63;;;12.40;79.70;;;;;;5146107;28;20045;-33
2022/01/20 04:39:28;;;;;;;8.27;3.72;;;12.40;79.30;;;;;;5128892;28;20476;-34
2022/01/20 04:41:59;;;;;;;7.13;3.50;;;12.50;79.20;;;;;;5129678;28;20062;-34
2022/01/20 04:47:39;;;;;;;8.93;3.20;;;12.40;78.00;;;;;;5126626;28;20059;-37
2022/01/20 04:58:39;;;;;;;9.77;5.10;;;12.60;78.50;;;;;;5149235;28;20523;-32
2022/01/20 05:01:10;;;;;;;5.80;2.80;;;12.70;77.10;;;;;;5148513;28;20070;-31
2022/01/20 05:03:43;;;;;;;9.47;4.07;;;12.90;76.50;;;;;;5106659;29;20565;-33
2022/01/20 05:06:14;;;;;;;8.20;3.15;;;13.10;76.00;;;;;;5106488;29;20490;-31
2022/01/20 05:08:45;;;;;;;8.63;3.60;;;13.30;75.80;;;;;;5107006;29;20047;-32
2022/01/20 05:11:16;;;;;;;6.00;2.97;;;13.40;75.20;;;;;;5106619;29;20052;-31
2022/01/20 05:13:47;;;;;;;9.73;3.47;;;13.50;75.30;;;;;;5107254;29;20163;-32
2022/01/20 05:16:18;;;;;;;9.77;3.67;;;13.50;75.40;;;;;;5107124;29;20057;-33
2022/01/20 05:18:49;;;;;;;9.57;3.47;;;13.60;75.10;;;;;;5104235;29;20127;-30
2022/01/20 05:21:20;;;;;;;10.70;3.50;;;13.70;74.90;;;;;;5104197;29;20051;-34
2022/01/20 05:23:51;;;;;;;7.53;2.73;;;13.70;75.00;;;;;;5103954;29;20115;-32
2022/01/20 05:26:22;;;;;;;7.43;2.57;;;13.70;74.50;;;;;;5104170;29;20059;-32
2022/01/20 05:28:53;;;;;;;9.87;4.20;;;13.80;74.60;;;;;;5088722;29;20067;-32
2022/01/20 05:31:24;;;;;;;11.70;4.63;;;13.90;74.30;;;;;;5104307;29;20040;-32
2022/01/20 05:33:55;;;;;;;12.97;5.43;;;13.90;74.20;;;;;;5098117;28;20652;-33
2022/01/20 05:36:26;;;;;;;10.00;4.90;;;13.80;74.80;;;;;;5146628;28;20610;-32
2022/01/20 05:38:57;;;;;;;18.97;8.77;;;13.90;74.40;;;;;;5129289;28;20050;-32
2022/01/20 05:41:28;;;;;;;12.23;4.50;;;13.90;74.20;;;;;;5146357;28;20066;-31
2022/01/20 05:43:59;;;;;;;12.13;5.87;;;13.80;74.20;;;;;;5146369;28;20527;-32
2022/01/20 05:46:38;;;;;;;7.87;3.77;;;13.80;74.30;;;;;;5146260;28;20397;-32
2022/01/20 05:49:09;;;;;;;13.73;7.20;;;13.80;74.30;;;;;;5130133;28;20074;-31
2022/01/20 05:51:40;;;;;;;15.57;6.30;;;13.90;74.30;;;;;;5146148;28;20515;-32
2022/01/20 05:54:12;;;;;;;18.97;10.23;;;14.00;74.20;;;;;;5128797;28;20054;-34
2022/01/20 05:56:43;;;;;;;11.10;4.70;;;14.00;74.30;;;;;;5145287;28;20102;-32
2022/01/20 05:59:14;;;;;;;19.37;9.57;;;14.10;74.30;;;;;;5145808;28;20496;-31
2022/01/20 06:01:52;;;;;;;17.90;7.70;;;14.10;75.00;;;;;;5145726;28;20066;-32
2022/01/20 06:04:23;;;;;;;14.20;6.63;;;14.20;73.80;;;;;;5129911;28;20081;-32
2022/01/20 06:06:54;;;;;;;9.47;4.30;;;14.30;74.00;;;;;;5145736;28;20046;-32
2022/01/20 06:09:25;;;;;;;15.73;8.17;;;14.30;74.80;;;;;;5145877;28;20401;-30
2022/01/20 06:11:56;;;;;;;9.67;4.43;;;14.20;73.70;;;;;;5145624;28;20061;-32
2022/01/20 06:14:28;;;;;;;18.63;7.83;;;14.00;74.30;;;;;;5128397;28;20046;-31
2022/01/20 06:16:59;;;;;;;17.92;8.60;;;13.90;75.50;;;;;;5127991;28;20785;-32
2022/01/20 06:19:30;;;;;;;14.03;5.97;;;13.90;77.30;;;;;;5128389;28;20184;-32
2022/01/20 06:22:01;;;;;;;16.90;9.00;;;13.70;78.80;;;;;;5145654;28;20182;-32
2022/01/20 06:24:32;;;;;;;11.97;6.13;;;13.70;79.20;;;;;;5145747;28;20046;-32
2022/01/20 06:27:03;;;;;;;12.03;6.57;;;13.50;78.80;;;;;;5145529;28;20070;-31
2022/01/20 06:29:34;;;;;;;6.30;4.30;;;13.50;78.20;;;;;;5145506;28;20043;-30
2022/01/20 06:32:06;;;;;;;7.13;3.50;;;13.60;78.20;;;;;;5145170;28;20123;-32
2022/01/20 06:34:37;;;;;;;7.37;4.20;;;13.60;78.50;;;;;;5145581;28;20043;-33
2022/01/20 06:37:08;;;;;;;10.43;4.50;;;13.60;77.20;;;;;;5145509;28;20405;-31
2022/01/20 06:39:39;;;;;;;10.83;6.40;;;13.60;76.70;;;;;;5130345;28;20047;-32
2022/01/20 06:42:10;;;;;;;9.20;5.40;;;13.70;76.60;;;;;;5147280;28;20050;-31
2022/01/20 06:44:42;;;;;;;12.27;6.53;;;13.70;76.10;;;;;;5147287;28;20118;-32
2022/01/20 06:47:13;;;;;;;8.13;5.07;;;13.70;75.70;;;;;;5130460;28;20073;-33
2022/01/20 06:49:45;;;;;;;12.17;5.63;;;13.70;75.50;;;;;;5147538;28;20058;-34
2022/01/20 06:52:16;;;;;;;11.57;6.13;;;13.70;75.30;;;;;;5147656;28;20102;-31
2022/01/20 06:54:47;;;;;;;8.33;4.53;;;13.70;75.00;;;;;;5147352;28;20428;-32
2022/01/20 06:57:19;;;;;;;9.17;4.83;;;13.70;74.70;;;;;;5146680;28;20051;-32
2022/01/20 06:59:50;;;;;;;9.97;5.63;;;13.70;74.60;;;;;;5147370;28;20126;-32
2022/01/20 07:02:23;;;;;;;11.37;6.70;;;13.70;74.60;;;;;;5146929;28;20066;-31
2022/01/20 07:04:53;;;;;;;8.00;4.87;;;13.60;74.40;;;;;;5129913;28;20054;-32
2022/01/20 07:07:25;;;;;;;7.90;3.77;;;13.60;74.30;;;;;;5146987;28;20043;-32
2022/01/20 07:09:55;;;;;;;7.90;3.53;;;13.60;74.10;;;;;;5147189;28;20057;-33
2022/01/20 07:12:26;;;;;;;11.23;6.00;;;13.50;73.90;;;;;;5129808;28;20079;-31
2022/01/20 07:14:57;;;;;;;6.10;2.63;;;13.50;73.80;;;;;;5129791;28;20085;-32
2022/01/20 07:17:28;;;;;;;5.37;2.50;;;13.50;73.60;;;;;;5129859;28;20445;-31
2022/01/20 07:19:59;;;;;;;10.93;5.40;;;13.50;73.20;;;;;;5146576;28;20055;-32
2022/01/20 07:22:30;;;;;;;9.90;4.77;;;13.40;73.20;;;;;;5128807;28;20058;-31
2022/01/20 07:25:02;;;;;;;9.90;5.33;;;13.40;73.50;;;;;;5146860;28;20043;-32
2022/01/20 07:27:33;;;;;;;13.43;7.77;;;13.30;73.30;;;;;;5146575;28;20051;-32
2022/01/20 07:30:05;;;;;;;9.27;4.80;;;13.30;73.60;;;;;;5146712;28;20053;-32
2022/01/20 07:32:36;;;;;;;9.37;4.30;;;13.20;73.30;;;;;;5146442;28;20055;-32
2022/01/20 07:35:07;;;;;;;7.27;3.83;;;13.30;73.40;;;;;;5146709;28;20097;-32
2022/01/20 07:37:49;;;;;;;6.93;4.07;;;13.30;73.60;;;;;;5147194;28;20054;-31
2022/01/20 07:40:23;;;;;;;7.87;3.83;;;13.20;74.10;;;;;;5131378;28;20043;-32
2022/01/20 07:42:55;;;;;;;7.28;3.75;;;13.10;74.20;;;;;;5146598;28;20058;-32
2022/01/20 07:45:26;;;;;;;6.97;4.73;;;13.20;74.40;;;;;;5146756;28;20448;-31
2022/01/20 07:47:58;;;;;;;11.97;7.53;;;13.10;74.20;;;;;;5146588;28;20074;-31
2022/01/20 07:50:28;;;;;;;15.17;8.37;;;13.10;74.30;;;;;;5146400;28;20043;-32
2022/01/20 07:52:59;;;;;;;10.33;4.77;;;13.00;74.30;;;;;;5129192;28;20397;-33
2022/01/20 07:55:31;;;;;;;10.77;5.40;;;13.00;74.60;;;;;;5129690;28;20051;-31
2022/01/20 07:58:02;;;;;;;14.97;7.03;;;12.90;74.00;;;;;;5129276;28;20063;-32
2022/01/20 08:00:33;;;;;;;15.03;5.70;;;13.00;74.50;;;;;;5146519;28;20050;-31
2022/01/20 08:03:04;;;;;;;11.60;5.80;;;12.90;74.60;;;;;;5146229;28;20511;-31
2022/01/20 08:05:35;;;;;;;9.63;4.27;;;12.80;75.10;;;;;;5146204;28;20047;-31
2022/01/20 08:08:06;;;;;;;12.67;5.97;;;12.70;73.90;;;;;;5146363;28;20477;-31
2022/01/20 08:10:37;;;;;;;9.90;5.20;;;12.70;73.60;;;;;;5146078;28;20067;-31
2022/01/20 08:13:08;;;;;;;11.33;5.33;;;12.70;73.70;;;;;;5146227;28;20497;-31
2022/01/20 08:15:39;;;;;;;14.70;7.53;;;12.70;73.70;;;;;;5146282;28;20081;-32
2022/01/20 08:18:10;;;;;;;9.73;4.53;;;12.70;75.40;;;;;;5146175;28;20113;-33
2022/01/20 08:20:41;;;;;;;10.20;3.93;;;12.70;73.30;;;;;;5132727;28;20485;-34
2022/01/20 08:23:13;;;;;;;20.87;8.80;;;12.60;72.40;;;;;;5149801;28;20054;-31
2022/01/20 08:25:44;;;;;;;18.17;9.80;;;12.60;73.30;;;;;;5150016;28;20051;-31
2022/01/20 08:28:21;;;;;;;18.17;8.73;;;12.60;73.30;;;;;;5132647;28;20053;-33
2022/01/20 08:30:56;;;;;;;15.43;7.73;;;12.60;73.00;;;;;;5119144;28;20043;-33
2022/01/20 08:33:33;;;;;;;10.57;5.77;;;12.60;72.60;;;;;;5149866;28;20050;-34
2022/01/20 08:36:06;;;;;;;21.93;13.07;;;12.50;72.40;;;;;;5133205;28;20047;-32
2022/01/20 08:38:38;;;;;;;11.57;5.50;;;12.60;72.30;;;;;;5132783;28;20135;-32
2022/01/20 08:41:09;;;;;;;8.23;4.87;;;12.60;73.20;;;;;;5149542;28;20154;-32
2022/01/20 08:43:40;;;;;;;11.53;5.30;;;12.50;73.70;;;;;;5149829;28;20051;-32
2022/01/20 08:46:11;;;;;;;9.73;4.40;;;12.50;72.10;;;;;;5149938;28;20083;-32
2022/01/20 08:48:42;;;;;;;6.80;4.13;;;12.50;72.00;;;;;;5149474;28;20051;-32
2022/01/20 08:51:14;;;;;;;14.40;6.83;;;12.50;71.60;;;;;;5132146;28;20050;-31
2022/01/20 08:54:02;;;;;;;8.63;3.50;;;12.60;73.80;;;;;;5132780;28;20039;-32
2022/01/20 08:56:36;;;;;;;9.33;5.13;;;12.40;71.30;;;;;;5147179;28;20100;-34
2022/01/20 08:59:07;;;;;;;8.60;3.93;;;12.40;72.20;;;;;;5132214;28;20086;-32
2022/01/20 09:01:39;;;;;;;11.30;5.50;;;12.40;73.30;;;;;;5147198;28;20053;-33
2022/01/20 09:04:11;;;;;;;9.43;3.72;;;12.40;71.60;;;;;;5129834;28;20039;-31
2022/01/20 09:06:46;;;;;;;6.63;3.00;;;12.40;72.00;;;;;;5147311;28;20058;-33
2022/01/20 09:09:33;;;;;;;8.43;4.73;;;12.30;71.50;;;;;;5147060;28;20487;-32
2022/01/20 09:18:02;;;;;;;6.53;3.53;;;12.30;72.90;;;;;;5065702;29;20063;-32
2022/01/20 09:20:34;;;;;;;5.57;2.67;;;12.30;74.00;;;;;;5049907;29;20049;-31
2022/01/20 09:23:06;;;;;;;5.97;2.20;;;12.20;73.30;;;;;;5065568;29;20048;-32
2022/01/20 09:25:41;;;;;;;7.20;3.77;;;12.10;72.80;;;;;;5065409;29;20067;-31
2022/01/20 09:28:12;;;;;;;8.30;4.30;;;12.20;73.30;;;;;;5050205;29;20092;-33
2022/01/20 09:30:46;;;;;;;6.80;4.30;;;12.20;74.40;;;;;;5064162;29;20057;-31
2022/01/20 09:33:26;;;;;;;3.70;2.10;;;12.30;73.90;;;;;;5049916;29;20108;-32
2022/01/20 09:35:58;;;;;;;8.10;4.03;;;12.30;73.30;;;;;;5065258;29;20053;-32
2022/01/20 09:38:40;;;;;;;9.47;5.23;;;12.30;73.70;;;;;;5065404;29;20495;-32
2022/01/20 09:41:12;;;;;;;8.90;4.80;;;12.30;73.60;;;;;;5035736;29;20072;-32
2022/01/20 09:43:45;;;;;;;12.80;6.53;;;12.30;74.10;;;;;;5034180;29;20053;-33
2022/01/20 09:46:18;;;;;;;15.32;9.05;;;12.30;73.50;;;;;;5049669;29;20056;-32
2022/01/20 09:48:50;;;;;;;16.73;9.87;;;12.30;74.00;;;;;;5049728;29;20057;-32
2022/01/20 09:51:32;;;;;;;6.20;3.80;;;12.30;74.10;;;;;;5065080;29;20153;-32
2022/01/20 09:54:04;;;;;;;13.33;8.30;;;12.20;73.10;;;;;;5049162;29;20052;-32
2022/01/20 09:56:36;;;;;;;7.87;5.47;;;12.30;73.90;;;;;;5094972;28;20061;-32
2022/01/20 09:59:07;;;;;;;9.60;5.03;;;12.40;75.00;;;;;;5132387;28;20050;-32
2022/01/20 10:01:47;;;;;;;8.00;4.22;;;12.30;75.00;;;;;;5112635;28;20050;-32
2022/01/20 10:04:22;;;;;;;16.03;9.67;;;12.40;74.50;;;;;;5146010;28;20488;-32
2022/01/20 10:07:01;;;;;;;15.30;8.57;;;12.40;73.90;;;;;;5128634;28;20058;-32
2022/01/20 10:09:45;;;;;;;9.47;4.60;;;12.40;77.60;;;;;;5146141;28;20034;-31
2022/01/20 10:12:16;;;;;;;;;;;12.40;74.90;;;;;;5129567;28;20051;-32
2022/01/20 10:14:50;;;;;;;10.73;4.90;;;12.30;73.20;;;;;;5144595;28;19936;-31
2022/01/20 10:17:23;;;;;;;8.17;3.37;;;12.30;73.20;;;;;;5145827;28;20050;-32
2022/01/20 10:20:00;;;;;;;5.68;2.78;;;12.30;74.20;;;;;;5145945;28;20039;-31
2022/01/20 10:22:33;;;;;;;10.13;5.53;;;12.30;73.00;;;;;;5112114;28;20054;-32
2022/01/20 10:25:06;;;;;;;6.33;3.40;;;12.30;73.10;;;;;;5128632;28;20054;-32
2022/01/20 10:27:48;;;;;;;5.13;2.75;;;12.30;71.60;;;;;;5145768;28;20721;-33
2022/01/20 10:30:19;;;;;;;10.27;3.87;;;12.30;71.90;;;;;;5145651;28;20074;-31
2022/01/20 10:32:51;;;;;;;10.30;4.97;;;12.40;71.00;;;;;;5145369;28;20050;-31
2022/01/20 10:35:32;;;;;;;8.67;4.13;;;12.50;70.30;;;;;;5128466;28;20049;-30
2022/01/20 10:38:16;;;;;;;10.67;4.83;;;12.60;70.20;;;;;;5108968;29;20062;-32
2022/01/20 10:40:56;;;;;;;9.60;4.68;;;12.60;70.10;;;;;;5138323;28;20047;-31
2022/01/20 10:43:29;;;;;;;8.50;4.70;;;12.60;70.80;;;;;;5128434;28;20050;-31
2022/01/20 10:46:08;;;;;;;13.82;8.60;;;12.60;71.50;;;;;;5145022;28;20492;-34
2022/01/20 10:48:40;;;;;;;14.10;8.13;;;12.70;72.00;;;;;;5145451;28;20035;-31
2022/01/20 10:51:17;;;;;;;9.57;6.90;;;12.70;72.40;;;;;;5145110;28;20038;-33
2022/01/20 10:54:26;;;;;;;16.60;11.07;;;12.70;72.50;;;;;;5127931;28;20046;-32
2022/01/20 10:57:00;;;;;;;12.77;6.87;;;12.80;73.20;;;;;;5083204;29;20545;-31
2022/01/20 10:59:32;;;;;;;6.43;3.50;;;12.80;73.40;;;;;;5083156;29;20221;-31
2022/01/20 11:02:08;;;;;;;18.97;11.03;;;12.80;72.90;;;;;;5067371;29;20055;-33
2022/01/20 11:04:40;;;;;;;6.77;5.20;;;12.80;72.80;;;;;;5083582;29;20036;-33
2022/01/20 11:07:11;;;;;;;7.60;5.17;;;12.70;72.40;;;;;;5085501;29;20501;-33
2022/01/20 11:09:45;;;;;;;8.17;4.50;;;12.70;72.60;;;;;;5070091;29;20044;-33
2022/01/20 11:12:17;;;;;;;12.88;5.72;;;12.70;72.30;;;;;;5085739;29;20104;-32
2022/01/20 11:14:51;;;;;;;15.93;7.27;;;12.70;72.50;;;;;;5069890;29;20059;-33
2022/01/20 11:17:26;;;;;;;13.23;6.07;;;12.70;73.90;;;;;;5085351;29;20127;-32
2022/01/20 11:20:11;;;;;;;10.60;6.83;;;12.50;76.10;;;;;;5070041;29;20079;-31
2022/01/20 11:22:58;;;;;;;6.90;3.77;;;12.40;75.20;;;;;;5071097;29;20066;-31
2022/01/20 11:25:49;;;;;;;17.87;7.73;;;12.30;75.60;;;;;;5085767;29;20448;-32
2022/01/20 11:28:22;;;;;;;7.53;3.90;;;12.40;76.40;;;;;;5127422;28;20141;-32
2022/01/20 11:31:11;;;;;;;15.23;6.85;;;12.30;77.60;;;;;;5146708;28;20054;-31
2022/01/20 11:33:44;;;;;;;7.87;3.83;;;12.20;77.40;;;;;;5146719;28;20070;-34
2022/01/20 11:36:27;;;;;;;9.05;4.10;;;12.20;77.60;;;;;;5129610;28;20050;-31
2022/01/20 11:39:03;;;;;;;9.20;4.70;;;12.30;78.00;;;;;;5146317;28;20046;-34
2022/01/20 11:41:46;;;;;;;11.93;5.37;;;12.20;79.20;;;;;;5146423;28;20039;-30
2022/01/20 11:44:24;;;;;;;36.78;20.65;;;12.20;78.90;;;;;;5129559;28;20089;-33
2022/01/20 11:47:08;;;;;;;39.43;19.30;;;12.30;79.70;;;;;;5147063;28;20362;-30
2022/01/20 11:49:40;;;;;;;13.20;6.50;;;12.20;79.70;;;;;;5146580;28;20042;-31
2022/01/20 11:52:32;;;;;;;20.63;9.37;;;12.20;78.60;;;;;;5146273;28;20050;-31
2022/01/20 11:55:10;;;;;;;28.77;15.47;;;12.30;78.80;;;;;;5146036;28;20042;-31
2022/01/20 12:18:13;;;;;;;8.40;4.37;;;12.40;78.90;;;;;;5205616;28;20057;-31
2022/01/20 12:20:44;;;;;;;3.40;1.87;;;12.50;78.50;;;;;;5189229;28;20399;-30
2022/01/20 12:23:17;;;;;;;23.67;11.80;;;12.40;77.60;;;;;;5206773;28;20099;-31
2022/01/20 12:25:48;;;;;;;11.30;5.97;;;12.40;77.50;;;;;;5206661;28;20053;-31
2022/01/20 12:28:19;;;;;;;11.87;7.43;;;12.50;77.20;;;;;;5171872;28;20052;-30
2022/01/20 12:30:51;;;;;;;33.60;22.10;;;12.70;77.10;;;;;;5206778;28;20061;-30
2022/01/20 12:33:27;;;;;;;25.90;17.97;;;12.60;76.60;;;;;;5206830;28;20072;-31
2022/01/20 12:36:04;;;;;;;38.67;25.83;;;12.60;76.00;;;;;;5189436;28;20115;-31
2022/01/20 12:38:39;;;;;;;16.33;9.00;;;12.60;75.40;;;;;;5174269;28;20045;-30
2022/01/20 12:41:18;;;;;;;12.00;7.83;;;12.70;74.80;;;;;;5207385;28;20437;-31
2022/01/20 12:43:55;;;;;;;7.57;6.10;;;12.60;74.20;;;;;;5206753;28;20571;-30
2022/01/20 12:46:28;;;;;;;17.73;12.33;;;12.60;74.10;;;;;;5140347;28;20049;-30
2022/01/20 12:49:25;;;;;;;8.80;7.28;;;12.50;74.00;;;;;;5206419;28;20052;-31
2022/01/20 12:51:58;;;;;;;7.97;5.03;;;12.60;74.40;;;;;;5202308;28;20061;-31
2022/01/20 12:54:30;;;;;;;6.40;4.50;;;12.60;74.50;;;;;;5206916;28;20072;-31
2022/01/20 12:57:03;;;;;;;7.47;4.72;;;12.60;74.60;;;;;;5206770;28;20390;-31
2022/01/20 12:59:39;;;;;;;8.00;5.53;;;12.60;74.80;;;;;;5206656;28;20045;-32
2022/01/20 13:02:19;;;;;;;7.50;5.63;;;12.60;75.30;;;;;;5207100;28;20041;-31
2022/01/20 13:04:58;;;;;;;8.13;4.20;;;12.60;75.60;;;;;;5207361;28;20514;-31
2022/01/20 13:07:30;;;;;;;7.47;5.80;;;12.60;76.50;;;;;;5208045;28;20053;-31
2022/01/20 13:10:20;;;;;;;6.90;4.13;;;12.60;76.10;;;;;;5190296;28;20124;-31
2022/01/20 13:12:51;;;;;;;9.43;5.60;;;12.60;76.00;;;;;;5173876;28;20392;-31
2022/01/20 13:15:24;;;;;;;8.40;4.23;;;12.60;75.80;;;;;;5189317;28;20054;-32
2022/01/20 13:18:04;;;;;;;8.50;4.30;;;12.70;76.00;;;;;;5189186;28;20434;-31
2022/01/20 13:20:41;;;;;;;8.80;4.57;;;12.70;75.70;;;;;;5189216;28;20053;-31
2022/01/20 13:25:45;;;;;;;19.00;10.60;;;12.60;74.80;;;;;;5188951;28;20061;-33
2022/01/20 13:28:17;;;;;;;19.50;11.43;;;12.70;75.10;;;;;;5189394;28;20049;-31
2022/01/20 13:30:48;;;;;;;27.17;15.73;;;12.60;74.90;;;;;;5171109;28;20042;-30
2022/01/20 13:33:19;;;;;;;10.10;5.93;;;12.50;74.80;;;;;;5189528;28;20049;-30
2022/01/20 13:36:00;;;;;;;47.70;22.33;;;12.30;74.80;;;;;;5171537;28;20046;-30
2022/01/20 13:38:32;;;;;;;40.10;18.57;;;12.20;75.30;;;;;;5172811;28;20519;-31
2022/01/20 13:41:10;;;;;;;10.43;4.70;;;12.20;75.20;;;;;;5171545;28;20049;-33
2022/01/20 13:47:18;;;;;;;7.90;4.50;;;12.00;76.00;;;;;;5174766;28;20054;-31
2022/01/20 13:49:53;;;;;;;6.20;3.97;;;12.10;76.80;;;;;;5188935;28;20068;-31
2022/01/20 13:52:24;;;;;;;8.45;4.65;;;12.20;77.20;;;;;;5188733;28;20488;-31
2022/01/20 13:54:57;;;;;;;6.60;4.50;;;12.20;77.70;;;;;;5171566;28;20042;-31
2022/01/20 13:57:36;;;;;;;5.30;3.10;;;12.20;77.70;;;;;;5188900;28;20121;-31
2022/01/20 14:00:10;;;;;;;6.73;4.30;;;12.20;77.70;;;;;;5188819;28;20138;-30
2022/01/20 14:02:47;;;;;;;5.60;3.20;;;12.10;78.30;;;;;;5171835;28;20050;-31
